createdAt,value
2019-02-26T00:00:42.283Z,60448.70
2019-02-26T00:03:07.934Z,60448.70
2019-02-26T00:05:36.338Z,60414.14
2019-02-26T00:08:04.829Z,60422.27
2019-02-26T00:10:34.498Z,60422.27
2019-02-26T00:13:03.695Z,60437.52
2019-02-26T00:15:35.574Z,60463.94
2019-02-26T00:18:02.315Z,60433.45
2019-02-26T00:20:31.890Z,60433.45
2019-02-26T00:23:02.118Z,60440.57
2019-02-26T00:25:30.973Z,60455.81
2019-02-26T00:27:59.366Z,60439.55
2019-02-26T00:30:28.182Z,60439.55
2019-02-26T00:32:58.256Z,60442.60
2019-02-26T00:35:27.637Z,60446.66
2019-02-26T00:37:56.239Z,60452.76
2019-02-26T00:40:24.645Z,60463.94
2019-02-26T00:42:56.517Z,60463.94
2019-02-26T00:45:26.923Z,60421.26
2019-02-26T00:47:53.388Z,60444.63
2019-02-26T00:50:21.855Z,60461.91
2019-02-26T00:52:52.331Z,60420.24
2019-02-26T00:55:23.173Z,60466.99
2019-02-26T00:57:51.038Z,60441.58
2019-02-26T01:00:19.787Z,60442.60
2019-02-26T01:02:48.600Z,60452.76
2019-02-26T01:05:17.267Z,60448.70
2019-02-26T01:07:49.340Z,60436.50
2019-02-26T01:10:19.283Z,60430.40
2019-02-26T01:12:47.214Z,60434.47
2019-02-26T01:15:18.108Z,60454.79
2019-02-26T01:17:46.692Z,60427.36
2019-02-26T01:20:16.856Z,60462.92
2019-02-26T01:22:45.950Z,60448.70
2019-02-26T01:25:15.998Z,60450.73
2019-02-26T01:27:46.016Z,60446.66
2019-02-26T01:30:20.743Z,60457.84
2019-02-26T01:32:46.318Z,60416.18
2019-02-26T01:35:14.781Z,60454.79
2019-02-26T01:37:43.497Z,60397.89
2019-02-26T01:40:15.841Z,60434.47
2019-02-26T01:42:47.100Z,60436.50
2019-02-26T01:45:14.684Z,60444.63
2019-02-26T01:47:45.462Z,60463.94
2019-02-26T01:50:15.981Z,60440.57
2019-02-26T01:52:44.167Z,60449.71
2019-02-26T01:55:13.438Z,60462.92
2019-02-26T01:57:43.495Z,60442.60
2019-02-26T02:00:17.220Z,60449.71
2019-02-26T02:02:45.683Z,60434.47
2019-02-26T02:05:14.205Z,60439.55
2019-02-26T02:07:44.808Z,60457.84
2019-02-26T02:10:15.224Z,60451.75
2019-02-26T02:12:43.886Z,60453.78
2019-02-26T02:15:15.787Z,60422.27
2019-02-26T02:17:45.203Z,60413.13
2019-02-26T02:20:19.396Z,60448.70
2019-02-26T02:22:46.449Z,60422.27
2019-02-26T02:25:15.619Z,60460.89
2019-02-26T02:27:47.667Z,60446.66
2019-02-26T02:30:22.350Z,60410.08
2019-02-26T02:32:48.189Z,60475.12
2019-02-26T02:35:19.164Z,60481.21
2019-02-26T02:37:46.783Z,60453.78
2019-02-26T02:40:15.561Z,60438.53
2019-02-26T02:42:48.489Z,60428.37
2019-02-26T02:45:17.041Z,60443.61
2019-02-26T02:47:44.273Z,60452.76
2019-02-26T02:50:15.250Z,60463.94
2019-02-26T02:52:44.248Z,60445.65
2019-02-26T02:55:15.578Z,60450.73
2019-02-26T02:57:42.913Z,60438.53
2019-02-26T03:00:14.648Z,60431.42
2019-02-26T03:02:46.820Z,60437.52
2019-02-26T03:05:14.918Z,60443.61
2019-02-26T03:07:46.004Z,60439.55
2019-02-26T03:10:15.322Z,60440.57
2019-02-26T03:12:47.896Z,60444.63
2019-02-26T03:15:15.928Z,60462.92
2019-02-26T03:17:44.808Z,60479.18
2019-02-26T03:20:14.362Z,60452.76
2019-02-26T03:22:45.957Z,60447.68
2019-02-26T03:25:17.401Z,60462.92
2019-02-26T03:27:44.981Z,60480.20
2019-02-26T03:30:32.124Z,60463.94
2019-02-26T03:32:58.158Z,60448.70
2019-02-26T03:35:23.571Z,60434.47
2019-02-26T03:37:55.502Z,60493.41
2019-02-26T03:40:24.103Z,60481.21
2019-02-26T03:42:52.558Z,60440.57
2019-02-26T03:45:24.875Z,60447.68
2019-02-26T03:47:51.076Z,60490.36
2019-02-26T03:50:19.493Z,60461.91
2019-02-26T03:52:48.147Z,60464.96
2019-02-26T03:55:18.870Z,60478.16
2019-02-26T03:57:49.905Z,60462.92
2019-02-26T04:00:19.999Z,60494.43
2019-02-26T04:02:51.378Z,60465.97
2019-02-26T04:05:18.790Z,60454.79
2019-02-26T04:07:49.858Z,60460.89
2019-02-26T04:10:17.310Z,60455.81
2019-02-26T04:12:48.966Z,60456.82
2019-02-26T04:15:24.320Z,60473.09
2019-02-26T04:17:51.925Z,60435.48
2019-02-26T04:20:20.329Z,60461.91
2019-02-26T04:22:49.938Z,60462.92
2019-02-26T04:25:31.417Z,60450.73
2019-02-26T04:28:08.173Z,60457.84
2019-02-26T04:30:57.561Z,60484.26
2019-02-26T04:33:56.024Z,60459.87
2019-02-26T04:36:26.414Z,60459.87
2019-02-26T04:39:14.483Z,60456.82
2019-02-26T04:42:17.593Z,60456.82
2019-02-26T04:45:09.062Z,60463.94
2019-02-26T04:47:45.958Z,60460.89
2019-02-26T04:50:13.715Z,60443.61
2019-02-26T04:52:43.500Z,60438.53
2019-02-26T04:55:12.195Z,60449.71
2019-02-26T04:57:45.000Z,60429.39
2019-02-26T05:00:11.515Z,60436.50
2019-02-26T05:02:40.306Z,60454.79
2019-02-26T05:05:08.885Z,60439.55
2019-02-26T05:07:38.507Z,60474.10
2019-02-26T05:10:08.314Z,60471.05
2019-02-26T05:12:39.693Z,60452.76
2019-02-26T05:15:11.654Z,60462.92
2019-02-26T05:17:37.699Z,60448.70
2019-02-26T05:20:09.677Z,60448.70
2019-02-26T05:22:36.865Z,60457.84
2019-02-26T05:25:08.293Z,60442.60
2019-02-26T05:27:40.019Z,60479.18
2019-02-26T05:30:09.828Z,60473.09
2019-02-26T05:32:39.430Z,60449.71
2019-02-26T05:35:08.209Z,60461.91
2019-02-26T05:37:40.193Z,60424.31
2019-02-26T05:40:10.723Z,60465.97
2019-02-26T05:42:37.830Z,60444.63
2019-02-26T05:45:09.343Z,60434.47
2019-02-26T05:47:37.562Z,60461.91
2019-02-26T05:50:12.384Z,60468.00
2019-02-26T05:52:38.219Z,60451.75
2019-02-26T05:55:07.542Z,60479.18
2019-02-26T05:57:35.929Z,60444.63
2019-02-26T06:00:08.338Z,60446.66
2019-02-26T06:02:39.424Z,60430.40
2019-02-26T06:05:08.818Z,60444.63
2019-02-26T06:07:38.890Z,60425.32
2019-02-26T06:10:07.692Z,60454.79
2019-02-26T06:12:38.220Z,60427.36
2019-02-26T06:15:08.073Z,60446.66
2019-02-26T06:17:40.682Z,60432.44
2019-02-26T06:20:15.673Z,60442.60
2019-02-26T06:22:44.066Z,60442.60
2019-02-26T06:25:17.663Z,60440.57
2019-02-26T06:27:42.647Z,60456.82
2019-02-26T06:30:13.647Z,60436.50
2019-02-26T06:32:44.420Z,60440.57
2019-02-26T06:35:16.103Z,60450.73
2019-02-26T06:37:44.382Z,60448.70
2019-02-26T06:40:17.126Z,60472.07
2019-02-26T06:42:45.515Z,60453.78
2019-02-26T06:45:16.473Z,60438.53
2019-02-26T06:47:45.738Z,60469.02
2019-02-26T06:50:18.466Z,60448.70
2019-02-26T06:52:47.672Z,60453.78
2019-02-26T06:55:16.228Z,60460.89
2019-02-26T06:57:47.148Z,60459.87
2019-02-26T07:00:19.727Z,60440.57
2019-02-26T07:02:47.515Z,60452.76
2019-02-26T07:05:16.301Z,60435.48
2019-02-26T07:07:44.752Z,60419.23
2019-02-26T07:10:18.288Z,60468.00
2019-02-26T07:12:45.529Z,60474.10
2019-02-26T07:15:16.239Z,60459.87
2019-02-26T07:17:45.876Z,60458.86
2019-02-26T07:20:15.063Z,60456.82
2019-02-26T07:22:44.146Z,60442.60
2019-02-26T07:25:16.646Z,60425.32
2019-02-26T07:27:44.406Z,60462.92
2019-02-26T07:30:13.353Z,60459.87
2019-02-26T07:32:45.037Z,60434.47
2019-02-26T07:35:15.962Z,60475.12
2019-02-26T07:37:42.317Z,60448.70
2019-02-26T07:40:13.784Z,60453.78
2019-02-26T07:42:43.847Z,60476.13
2019-02-26T07:45:15.276Z,60455.81
2019-02-26T07:47:45.083Z,60449.71
2019-02-26T07:50:14.697Z,60452.76
2019-02-26T07:52:44.192Z,60447.68
2019-02-26T07:55:16.819Z,60447.68
2019-02-26T07:57:45.560Z,60474.10
2019-02-26T08:00:19.850Z,60469.02
2019-02-26T08:02:48.245Z,60491.38
2019-02-26T08:05:18.732Z,60430.40
2019-02-26T08:07:48.539Z,60449.71
2019-02-26T08:10:19.467Z,60472.07
2019-02-26T08:12:48.242Z,60461.91
2019-02-26T08:15:17.099Z,60447.68
2019-02-26T08:17:47.955Z,60478.16
2019-02-26T08:20:15.831Z,60447.68
2019-02-26T08:22:44.190Z,60449.71
2019-02-26T08:25:13.623Z,60446.66
2019-02-26T08:27:44.179Z,60435.48
2019-02-26T08:30:17.762Z,60443.61
2019-02-26T08:32:48.462Z,60478.16
2019-02-26T08:35:17.854Z,60460.89
2019-02-26T08:37:45.212Z,60441.58
2019-02-26T08:40:15.464Z,60433.45
2019-02-26T08:42:44.070Z,60447.68
2019-02-26T08:45:23.573Z,60438.53
2019-02-26T08:47:52.146Z,60443.61
2019-02-26T08:50:20.538Z,60452.76
2019-02-26T08:52:52.327Z,60439.55
2019-02-26T08:55:22.319Z,60439.55
2019-02-26T08:57:52.017Z,60436.50
2019-02-26T09:00:21.903Z,60449.71
2019-02-26T09:02:53.827Z,60443.61
2019-02-26T09:05:20.655Z,60435.48
2019-02-26T09:07:50.514Z,60411.10
2019-02-26T09:10:21.253Z,60438.53
2019-02-26T09:12:51.897Z,60438.53
2019-02-26T09:15:20.902Z,60432.44
2019-02-26T09:17:49.297Z,60406.02
2019-02-26T09:20:19.873Z,60406.02
2019-02-26T09:22:50.918Z,60438.53
2019-02-26T09:25:21.054Z,60451.75
2019-02-26T09:27:48.959Z,60425.32
2019-02-26T09:30:19.324Z,60405.00
2019-02-26T09:32:47.912Z,60394.84
2019-02-26T09:35:21.782Z,60417.20
2019-02-26T09:37:49.949Z,60397.89
2019-02-26T09:40:20.091Z,60403.98
2019-02-26T09:42:51.577Z,60410.08
2019-02-26T09:45:23.699Z,60399.92
2019-02-26T09:47:52.689Z,60399.92
2019-02-26T09:50:22.614Z,60377.56
2019-02-26T09:52:53.473Z,60388.74
2019-02-26T09:55:21.327Z,60381.63
2019-02-26T09:57:49.766Z,60336.91
2019-02-26T10:00:27.178Z,60364.35
2019-02-26T10:02:55.324Z,60358.25
2019-02-26T10:05:23.727Z,60334.88
2019-02-26T10:07:54.394Z,60348.09
2019-02-26T10:10:25.573Z,60356.22
2019-02-26T10:12:56.234Z,60324.72
2019-02-26T10:15:23.830Z,60324.72
2019-02-26T10:17:52.208Z,60330.82
2019-02-26T10:20:24.847Z,60323.71
2019-02-26T10:22:54.767Z,60310.50
2019-02-26T10:25:23.339Z,60305.41
2019-02-26T10:27:53.134Z,60286.11
2019-02-26T10:30:22.460Z,60288.14
2019-02-26T10:32:51.074Z,60302.37
2019-02-26T10:35:32.396Z,60285.09
2019-02-26T10:38:02.153Z,60284.07
2019-02-26T10:40:35.127Z,60266.80
2019-02-26T10:42:58.738Z,60275.95
2019-02-26T10:45:28.466Z,60274.93
2019-02-26T10:47:58.926Z,60268.83
2019-02-26T10:50:31.482Z,60260.71
2019-02-26T10:53:06.565Z,60244.45
2019-02-26T10:55:35.359Z,60250.54
2019-02-26T10:57:58.597Z,60242.41
2019-02-26T11:00:32.249Z,60246.48
2019-02-26T11:02:59.433Z,60251.56
2019-02-26T11:05:27.817Z,60263.75
2019-02-26T11:07:59.786Z,60223.11
2019-02-26T11:10:26.597Z,60244.45
2019-02-26T11:12:58.616Z,60224.12
2019-02-26T11:15:26.816Z,60244.45
2019-02-26T11:17:55.931Z,60227.17
2019-02-26T11:20:27.698Z,60241.40
2019-02-26T11:22:54.604Z,60225.14
2019-02-26T11:25:26.494Z,60232.25
2019-02-26T11:27:53.750Z,60212.95
2019-02-26T11:30:28.530Z,60212.95
2019-02-26T11:32:58.670Z,60202.79
2019-02-26T11:35:27.110Z,60215.99
2019-02-26T11:37:57.437Z,60227.17
2019-02-26T11:40:28.194Z,60212.95
2019-02-26T11:42:56.299Z,60202.79
2019-02-26T11:45:24.749Z,60213.96
2019-02-26T11:47:55.173Z,60212.95
2019-02-26T11:50:28.086Z,60203.80
2019-02-26T11:52:55.120Z,60205.83
2019-02-26T11:55:26.203Z,60207.86
2019-02-26T11:57:53.818Z,60221.07
2019-02-26T12:00:44.902Z,60217.01
2019-02-26T12:03:13.566Z,60232.25
2019-02-26T12:05:41.962Z,60217.01
2019-02-26T12:08:11.560Z,60220.06
2019-02-26T12:10:40.652Z,60208.88
2019-02-26T12:13:09.387Z,60254.61
2019-02-26T12:15:38.959Z,60208.88
2019-02-26T12:18:09.895Z,60231.24
2019-02-26T12:20:40.323Z,60235.30
2019-02-26T12:23:10.627Z,60221.07
2019-02-26T12:25:38.795Z,60203.80
2019-02-26T12:28:08.243Z,60224.12
2019-02-26T12:30:41.462Z,60200.75
2019-02-26T12:33:09.851Z,60214.98
2019-02-26T12:35:40.020Z,60211.93
2019-02-26T12:38:18.170Z,60202.79
2019-02-26T12:40:42.570Z,60224.12
2019-02-26T12:43:11.474Z,60229.20
2019-02-26T12:45:40.524Z,60215.99
2019-02-26T12:48:10.247Z,60207.86
2019-02-26T12:50:40.588Z,60210.91
2019-02-26T12:53:12.558Z,60233.27
2019-02-26T12:55:42.089Z,60208.88
2019-02-26T12:58:10.620Z,60215.99
2019-02-26T13:00:41.992Z,60239.36
2019-02-26T13:03:12.328Z,60241.40
2019-02-26T13:05:42.553Z,60239.36
2019-02-26T13:08:12.475Z,60231.24
2019-02-26T13:10:42.616Z,60229.20
2019-02-26T13:13:10.150Z,60215.99
2019-02-26T13:15:38.829Z,60229.20
2019-02-26T13:18:07.518Z,60224.12
2019-02-26T13:20:36.205Z,60241.40
2019-02-26T13:23:16.938Z,60221.07
2019-02-26T13:25:35.009Z,60223.11
2019-02-26T13:28:03.427Z,60210.91
2019-02-26T13:30:32.075Z,60244.45
2019-02-26T13:33:04.223Z,60228.19
2019-02-26T13:35:30.597Z,60248.51
2019-02-26T13:38:01.019Z,60242.41
2019-02-26T13:40:29.420Z,60231.24
2019-02-26T13:45:28.545Z,60220.06
2019-02-26T13:48:01.210Z,60219.04
2019-02-26T13:50:29.612Z,60228.19
2019-02-26T13:52:58.091Z,60215.99
2019-02-26T13:55:26.721Z,60200.75
2019-02-26T13:57:55.206Z,60228.19
2019-02-26T14:00:26.617Z,60232.25
2019-02-26T14:02:54.203Z,60223.11
2019-02-26T14:05:22.741Z,60230.22
2019-02-26T14:07:52.064Z,60219.04
2019-02-26T14:10:25.173Z,60233.27
2019-02-26T14:12:54.596Z,60224.12
2019-02-26T14:15:25.423Z,60228.19
2019-02-26T14:17:54.323Z,60252.57
2019-02-26T14:20:22.895Z,60240.38
2019-02-26T14:22:51.355Z,60240.38
2019-02-26T14:25:20.301Z,60225.14
2019-02-26T14:27:48.911Z,60242.41
2019-02-26T14:30:21.600Z,60224.12
2019-02-26T14:32:50.202Z,60217.01
2019-02-26T14:35:18.680Z,60219.04
2019-02-26T14:37:47.128Z,60227.17
2019-02-26T14:40:16.738Z,60233.27
2019-02-26T14:42:45.668Z,60244.45
2019-02-26T14:45:22.057Z,60220.06
2019-02-26T14:47:50.460Z,60235.30
2019-02-26T14:50:20.274Z,60246.48
2019-02-26T14:52:48.939Z,60243.43
2019-02-26T14:55:17.839Z,60240.38
2019-02-26T14:57:46.364Z,60251.56
2019-02-26T15:00:26.665Z,60249.53
2019-02-26T15:02:55.769Z,60249.53
2019-02-26T15:05:24.565Z,60255.63
2019-02-26T15:07:53.152Z,60256.64
2019-02-26T15:10:21.628Z,60261.72
2019-02-26T15:12:50.105Z,60241.40
2019-02-26T15:15:19.443Z,60242.41
2019-02-26T15:17:48.963Z,60245.46
2019-02-26T15:20:21.990Z,60251.56
2019-02-26T15:22:50.681Z,60229.20
2019-02-26T15:25:33.290Z,60261.72
2019-02-26T15:28:05.110Z,60248.51
2019-02-26T15:30:31.888Z,60258.67
2019-02-26T15:33:00.292Z,60237.33
2019-02-26T15:35:28.671Z,60239.36
2019-02-26T15:37:57.473Z,60255.63
2019-02-26T15:40:26.526Z,60240.38
2019-02-26T15:42:56.386Z,60256.64
2019-02-26T15:45:30.525Z,60254.61
2019-02-26T15:47:59.023Z,60249.53
2019-02-26T15:50:27.621Z,60266.80
2019-02-26T15:52:56.317Z,60264.77
2019-02-26T15:55:28.214Z,60241.40
2019-02-26T15:57:56.403Z,60240.38
2019-02-26T16:00:25.351Z,60244.45
2019-02-26T16:02:59.015Z,60287.12
2019-02-26T16:05:27.399Z,60262.74
2019-02-26T16:07:55.790Z,60251.56
2019-02-26T16:10:24.196Z,60242.41
2019-02-26T16:12:52.576Z,60266.80
2019-02-26T16:15:20.992Z,60267.82
2019-02-26T16:17:49.675Z,60261.72
2019-02-26T16:20:19.725Z,60252.57
2019-02-26T16:22:48.442Z,60259.69
2019-02-26T16:25:17.024Z,60278.99
2019-02-26T16:27:45.418Z,60278.99
2019-02-26T16:30:27.201Z,60262.74
2019-02-26T16:32:55.864Z,60272.90
2019-02-26T16:35:25.520Z,60273.91
2019-02-26T16:37:54.234Z,60267.82
2019-02-26T16:40:22.707Z,60262.74
2019-02-26T16:42:51.110Z,60272.90
2019-02-26T16:45:27.321Z,60277.98
2019-02-26T16:47:57.398Z,60271.88
2019-02-26T16:50:31.281Z,60280.01
2019-02-26T16:53:00.504Z,60259.69
2019-02-26T16:55:30.790Z,60302.37
2019-02-26T16:58:02.264Z,60275.95
2019-02-26T17:00:31.024Z,60277.98
2019-02-26T17:03:01.030Z,60274.93
2019-02-26T17:05:29.885Z,60285.09
2019-02-26T17:07:58.812Z,60289.16
2019-02-26T17:10:30.310Z,60319.64
2019-02-26T17:13:01.976Z,60305.41
2019-02-26T17:15:35.848Z,60283.06
2019-02-26T17:18:04.629Z,60301.35
2019-02-26T17:20:33.209Z,60293.22
2019-02-26T17:23:01.962Z,60293.22
2019-02-26T17:25:30.363Z,60297.29
2019-02-26T17:27:59.037Z,60297.29
2019-02-26T17:30:27.444Z,60310.50
2019-02-26T17:32:56.074Z,60312.53
2019-02-26T17:35:28.563Z,60334.88
2019-02-26T17:37:55.033Z,60323.71
2019-02-26T17:40:25.054Z,60310.50
2019-02-26T17:42:54.374Z,60338.95
2019-02-26T17:45:28.533Z,60312.53
2019-02-26T17:47:57.507Z,60308.46
2019-02-26T17:50:32.281Z,60301.35
2019-02-26T17:53:00.896Z,60313.54
2019-02-26T17:55:29.548Z,60336.91
2019-02-26T17:57:58.217Z,60319.64
2019-02-26T18:00:28.781Z,60329.80
2019-02-26T18:02:57.173Z,60312.53
2019-02-26T18:05:25.776Z,60346.06
2019-02-26T18:07:54.185Z,60314.56
2019-02-26T18:10:24.927Z,60327.77
2019-02-26T18:12:54.106Z,60337.93
2019-02-26T18:15:23.034Z,60327.77
2019-02-26T18:17:51.424Z,60318.62
2019-02-26T18:20:21.691Z,60304.40
2019-02-26T18:22:50.149Z,60337.93
2019-02-26T18:25:22.819Z,60318.62
2019-02-26T18:27:51.217Z,60323.71
2019-02-26T18:30:22.499Z,60343.01
2019-02-26T18:32:55.650Z,60336.91
2019-02-26T18:35:21.614Z,60330.82
2019-02-26T18:37:50.400Z,60340.98
2019-02-26T18:40:19.231Z,60326.75
2019-02-26T18:42:48.291Z,60356.22
2019-02-26T18:45:27.908Z,60324.72
2019-02-26T18:47:55.390Z,60361.30
2019-02-26T18:50:25.823Z,60324.72
2019-02-26T18:52:54.475Z,60334.88
2019-02-26T18:55:27.890Z,60339.96
2019-02-26T18:57:54.519Z,60346.06
2019-02-26T19:00:28.135Z,60334.88
2019-02-26T19:02:56.601Z,60337.93
2019-02-26T19:05:25.884Z,60344.03
2019-02-26T19:07:54.733Z,60347.08
2019-02-26T19:10:23.531Z,60343.01
2019-02-26T19:12:51.989Z,60331.84
2019-02-26T19:15:22.649Z,60334.88
2019-02-26T19:17:53.327Z,60356.22
2019-02-26T19:20:24.822Z,60339.96
2019-02-26T19:22:53.510Z,60357.24
2019-02-26T19:25:21.970Z,60334.88
2019-02-26T19:27:52.851Z,60342.00
2019-02-26T19:30:22.437Z,60345.04
2019-02-26T19:32:51.099Z,60374.52
2019-02-26T19:35:19.523Z,60347.08
2019-02-26T19:40:59.861Z,60322.69
2019-02-26T19:43:28.932Z,60322.69
2019-02-26T19:45:58.593Z,60359.27
2019-02-26T19:48:30.465Z,60342.00
2019-02-26T19:50:57.154Z,60360.29
2019-02-26T19:53:25.648Z,60349.11
2019-02-26T19:55:54.696Z,60373.50
2019-02-26T19:58:23.084Z,60359.27
2019-02-26T20:00:53.040Z,60374.52
2019-02-26T20:03:21.794Z,60334.88
2019-02-26T20:05:50.321Z,60368.42
2019-02-26T20:08:18.729Z,60336.91
2019-02-26T20:10:49.089Z,60365.37
2019-02-26T20:13:17.392Z,60362.32
2019-02-26T20:15:45.779Z,60384.68
2019-02-26T20:18:20.570Z,60351.14
2019-02-26T20:20:46.017Z,60353.18
2019-02-26T20:23:14.523Z,60362.32
2019-02-26T20:25:43.361Z,60351.14
2019-02-26T20:28:11.978Z,60375.53
2019-02-26T20:30:40.381Z,60374.52
2019-02-26T20:33:08.809Z,60375.53
2019-02-26T20:35:37.218Z,60349.11
2019-02-26T20:38:05.696Z,60357.24
2019-02-26T20:40:34.091Z,60355.21
2019-02-26T20:43:04.645Z,60353.18
2019-02-26T20:45:33.896Z,60381.63
2019-02-26T20:48:04.214Z,60331.84
2019-02-26T20:50:32.482Z,60351.14
2019-02-26T20:53:00.894Z,60346.06
2019-02-26T20:55:31.403Z,60361.30
2019-02-26T20:58:02.036Z,60376.55
2019-02-26T21:00:30.492Z,60354.19
2019-02-26T21:02:58.876Z,60354.19
2019-02-26T21:05:27.338Z,60338.95
2019-02-26T21:07:58.283Z,60348.09
2019-02-26T21:10:25.890Z,60360.29
2019-02-26T21:12:54.331Z,60381.63
2019-02-26T21:15:26.750Z,60373.50
2019-02-26T21:17:57.760Z,60370.45
2019-02-26T21:20:26.334Z,60361.30
2019-02-26T21:22:55.511Z,60349.11
2019-02-26T21:25:26.641Z,60375.53
2019-02-26T21:27:55.367Z,60397.89
2019-02-26T21:30:24.869Z,60367.40
2019-02-26T21:32:57.824Z,60376.55
2019-02-26T21:35:23.562Z,60367.40
2019-02-26T21:37:52.279Z,60354.19
2019-02-26T21:40:20.692Z,60377.56
2019-02-26T21:42:49.077Z,60367.40
2019-02-26T21:45:18.486Z,60337.93
2019-02-26T21:47:46.957Z,60354.19
2019-02-26T21:50:16.224Z,60379.59
2019-02-26T21:52:59.280Z,60369.43
2019-02-26T21:55:17.950Z,60377.56
2019-02-26T21:57:46.593Z,60366.39
2019-02-26T22:00:23.390Z,60368.42
2019-02-26T22:02:53.021Z,60369.43
2019-02-26T22:05:21.477Z,60362.32
2019-02-26T22:07:52.506Z,60371.46
2019-02-26T22:10:21.338Z,60373.50
2019-02-26T22:12:49.746Z,60381.63
2019-02-26T22:15:18.413Z,60375.53
2019-02-26T22:17:46.889Z,60378.58
2019-02-26T22:20:23.618Z,60378.58
2019-02-26T22:22:47.675Z,60372.48
2019-02-26T22:25:17.337Z,60388.74
2019-02-26T22:27:46.098Z,60380.61
2019-02-26T22:30:21.487Z,60390.77
2019-02-26T22:32:46.902Z,60379.59
2019-02-26T22:35:15.294Z,60371.46
2019-02-26T22:37:43.928Z,60371.46
2019-02-26T22:40:13.760Z,60410.08
2019-02-26T22:42:42.267Z,60371.46
2019-02-26T22:45:13.091Z,60381.63
2019-02-26T22:47:43.915Z,60408.05
2019-02-26T22:50:15.589Z,60408.05
2019-02-26T22:52:44.038Z,60400.93
2019-02-26T22:55:16.528Z,60400.93
2019-02-26T22:57:44.666Z,60411.10
2019-02-26T23:00:26.245Z,60411.10
2019-02-26T23:02:54.652Z,60396.87
2019-02-26T23:05:25.452Z,60406.02
2019-02-26T23:07:53.338Z,60406.02
2019-02-26T23:10:24.567Z,60405.00
2019-02-26T23:12:51.942Z,60394.84
2019-02-26T23:15:20.463Z,60416.18
2019-02-26T23:17:49.221Z,60401.95
2019-02-26T23:20:17.706Z,60387.72
2019-02-26T23:22:46.248Z,60387.72
2019-02-26T23:25:14.700Z,60410.08
2019-02-26T23:27:46.132Z,60392.80
2019-02-26T23:30:13.804Z,60408.05
2019-02-26T23:32:42.280Z,60412.11
2019-02-26T23:35:15.315Z,60393.82
2019-02-26T23:37:44.039Z,60406.02
2019-02-26T23:40:13.861Z,60423.29
2019-02-26T23:42:42.312Z,60406.02
2019-02-26T23:45:12.469Z,60402.97
2019-02-26T23:47:40.980Z,60408.05
2019-02-26T23:50:11.651Z,60408.05
2019-02-26T23:52:40.426Z,60406.02
2019-02-26T23:55:13.433Z,60401.95
2019-02-26T23:57:41.875Z,60407.03
